Time;durP1;ratioP1;P1;durP2;ratioP2;P2;SDS_P1;SDS_P2;PMS_P1;PMS_P2;Temp;Humidity;BMP_temperature;BMP_pressure;BME280_temperature;BME280_humidity;BME280_pressure;Samples;Min_cycle;Max_cycle;Signal;HPM_P1;HPM_P2
2022/05/26 00:02:09;;;;;;;6.63;2.60;;;;;;;;;;5034449;28;20052;-68
2022/05/26 00:04:35;;;;;;;7.85;2.72;;;;;;;;;;5049779;28;20061;-68
2022/05/26 00:07:02;;;;;;;6.43;2.75;;;;;;;;;;5056236;28;20053;-68
2022/05/26 00:09:29;;;;;;;4.68;1.98;;;;;;;;;;5049077;28;20052;-68
2022/05/26 00:11:56;;;;;;;7.65;2.45;;;;;;;;;;5054996;28;20047;-68
2022/05/26 00:14:23;;;;;;;8.27;2.65;;;;;;;;;;5042179;28;20055;-68
2022/05/26 00:16:50;;;;;;;7.50;2.38;;;;;;;;;;5042690;28;20040;-67
2022/05/26 00:19:18;;;;;;;9.00;3.25;;;;;;;;;;5046106;28;20104;-68
2022/05/26 00:21:47;;;;;;;6.03;3.28;;;;;;;;;;5052178;28;20060;-69
2022/05/26 00:24:14;;;;;;;8.43;3.15;;;;;;;;;;5046709;28;20052;-69
2022/05/26 00:26:41;;;;;;;9.32;3.05;;;;;;;;;;5053020;28;20045;-68
2022/05/26 00:29:08;;;;;;;5.70;2.10;;;;;;;;;;5052484;28;20071;-68
2022/05/26 00:31:34;;;;;;;6.70;2.92;;;;;;;;;;5064632;28;20072;-69
2022/05/26 00:34:01;;;;;;;14.07;4.18;;;;;;;;;;5068695;28;20044;-70
2022/05/26 00:36:42;;;;;;;8.02;2.95;;;;;;;;;;5077406;28;20056;-70
2022/05/26 00:39:10;;;;;;;6.13;2.33;;;;;;;;;;5052094;28;20143;-70
2022/05/26 00:41:38;;;;;;;12.02;4.45;;;;;;;;;;5047097;28;20420;-70
2022/05/26 00:44:05;;;;;;;8.60;3.63;;;;;;;;;;5053572;28;20060;-70
2022/05/26 00:46:36;;;;;;;9.52;4.60;;;;;;;;;;5049044;28;20052;-71
2022/05/26 00:49:03;;;;;;;5.97;2.95;;;;;;;;;;5054293;28;20048;-70
2022/05/26 00:51:33;;;;;;;9.13;3.08;;;;;;;;;;5034611;28;20053;-70
2022/05/26 00:54:02;;;;;;;8.50;3.65;;;;;;;;;;5032701;28;20071;-69
2022/05/26 00:56:29;;;;;;;;;;;;;;;;;;5028397;28;20083;-70
2022/05/26 00:58:58;;;;;;;7.13;2.78;;;;;;;;;;5031976;28;19952;-70
2022/05/26 01:01:26;;;;;;;9.05;4.03;;;;;;;;;;5032656;28;20053;-70
2022/05/26 01:03:54;;;;;;;10.23;4.03;;;;;;;;;;5029541;28;20056;-71
2022/05/26 01:06:23;;;;;;;8.85;4.13;;;;;;;;;;5038785;28;20061;-70
2022/05/26 01:08:54;;;;;;;8.73;3.83;;;;;;;;;;5034095;28;20088;-70
2022/05/26 01:11:21;;;;;;;8.57;3.92;;;;;;;;;;5041618;28;20049;-70
2022/05/26 01:13:50;;;;;;;7.45;3.38;;;;;;;;;;5029397;28;20056;-70
2022/05/26 01:16:35;;;;;;;9.55;3.95;;;;;;;;;;5031133;28;20051;-70
2022/05/26 01:19:10;;;;;;;8.27;3.58;;;;;;;;;;4943518;28;20061;-70
2022/05/26 01:21:39;;;;;;;5.63;2.80;;;;;;;;;;5026179;28;20140;-70
2022/05/26 01:24:21;;;;;;;9.45;3.50;;;;;;;;;;5027868;28;20057;-70
2022/05/26 01:27:07;;;;;;;11.02;4.07;;;;;;;;;;5029702;28;20103;-69
2022/05/26 01:29:51;;;;;;;8.68;3.72;;;;;;;;;;4993160;28;20054;-70
2022/05/26 01:32:23;;;;;;;7.85;3.20;;;;;;;;;;5028285;28;20144;-70
2022/05/26 01:34:56;;;;;;;11.50;4.18;;;;;;;;;;5030692;28;20061;-70
2022/05/26 01:37:25;;;;;;;11.48;3.30;;;;;;;;;;5031678;28;20055;-70
2022/05/26 01:39:55;;;;;;;6.88;3.35;;;;;;;;;;5024631;28;20056;-70
2022/05/26 01:42:23;;;;;;;11.40;4.50;;;;;;;;;;5031984;28;20106;-71
2022/05/26 01:44:53;;;;;;;13.13;3.83;;;;;;;;;;5032377;28;20052;-71
2022/05/26 01:47:28;;;;;;;9.77;2.80;;;;;;;;;;5008735;28;20054;-70
2022/05/26 01:49:57;;;;;;;9.88;3.38;;;;;;;;;;5024335;28;20072;-72
2022/05/26 01:52:27;;;;;;;17.38;4.90;;;;;;;;;;5025034;28;20074;-71
2022/05/26 01:54:58;;;;;;;15.10;5.03;;;;;;;;;;5031501;28;20065;-71
2022/05/26 01:57:28;;;;;;;14.48;3.55;;;;;;;;;;5024651;28;20119;-70
2022/05/26 01:59:56;;;;;;;7.65;3.30;;;;;;;;;;5030836;28;20140;-71
2022/05/26 02:02:26;;;;;;;7.43;3.13;;;;;;;;;;5020938;28;20088;-71
2022/05/26 02:04:54;;;;;;;9.43;3.15;;;;;;;;;;5047455;28;20075;-70
2022/05/26 02:07:25;;;;;;;10.63;3.08;;;;;;;;;;5045567;28;20148;-70
2022/05/26 02:09:53;;;;;;;8.45;3.00;;;;;;;;;;5024817;28;20053;-71
2022/05/26 02:12:21;;;;;;;15.25;4.05;;;;;;;;;;5027213;28;20080;-71
2022/05/26 02:14:50;;;;;;;10.43;3.60;;;;;;;;;;5036596;28;20060;-70
2022/05/26 02:17:19;;;;;;;11.68;3.65;;;;;;;;;;5036923;28;20049;-71
2022/05/26 02:19:49;;;;;;;13.68;3.97;;;;;;;;;;5021566;28;20063;-71
2022/05/26 02:22:19;;;;;;;19.13;4.07;;;;;;;;;;5010873;28;20116;-71
2022/05/26 02:24:49;;;;;;;17.45;4.20;;;;;;;;;;5047087;28;20060;-71
2022/05/26 02:27:16;;;;;;;16.58;4.68;;;;;;;;;;5047401;28;20111;-71
2022/05/26 02:29:55;;;;;;;17.20;5.28;;;;;;;;;;5039621;28;20057;-70
2022/05/26 02:32:24;;;;;;;16.73;3.85;;;;;;;;;;5047467;28;20041;-70
2022/05/26 02:34:53;;;;;;;13.00;3.75;;;;;;;;;;5037787;28;20046;-71
2022/05/26 02:37:21;;;;;;;10.43;3.70;;;;;;;;;;5029075;28;20065;-71
2022/05/26 02:39:47;;;;;;;18.08;4.88;;;;;;;;;;5024219;28;20056;-72
2022/05/26 02:42:14;;;;;;;11.63;3.70;;;;;;;;;;5063847;28;20068;-69
2022/05/26 02:44:42;;;;;;;15.20;3.90;;;;;;;;;;5041025;28;20095;-72
2022/05/26 02:47:19;;;;;;;10.10;2.83;;;;;;;;;;5063683;28;20085;-71
2022/05/26 02:49:52;;;;;;;13.13;3.88;;;;;;;;;;5057697;28;20067;-70
2022/05/26 02:52:24;;;;;;;12.63;3.17;;;;;;;;;;5064389;28;20060;-71
2022/05/26 02:54:56;;;;;;;10.73;3.22;;;;;;;;;;5049254;28;20045;-69
2022/05/26 02:57:25;;;;;;;24.83;4.45;;;;;;;;;;5015971;28;20054;-70
2022/05/26 02:59:58;;;;;;;16.85;3.70;;;;;;;;;;5022639;28;20053;-70
2022/05/26 03:02:27;;;;;;;10.07;3.25;;;;;;;;;;5023013;28;20046;-70
2022/05/26 03:04:53;;;;;;;;;;;;;;;;;;5047379;28;20053;-70
2022/05/26 03:07:23;;;;;;;10.20;3.47;;;;;;;;;;5024718;28;20035;-70
2022/05/26 03:09:51;;;;;;;12.48;3.80;;;;;;;;;;5026185;28;20053;-71
2022/05/26 03:12:22;;;;;;;16.02;3.83;;;;;;;;;;5021773;28;20053;-71
2022/05/26 03:14:48;;;;;;;14.10;3.00;;;;;;;;;;5027231;28;20053;-70
2022/05/26 03:17:15;;;;;;;8.73;2.50;;;;;;;;;;5023426;28;20058;-70
2022/05/26 03:19:42;;;;;;;13.02;3.35;;;;;;;;;;5026152;28;20069;-71
2022/05/26 03:22:08;;;;;;;13.27;3.63;;;;;;;;;;5023641;28;20056;-71
2022/05/26 03:24:36;;;;;;;9.27;2.53;;;;;;;;;;5063305;28;20083;-70
2022/05/26 03:27:04;;;;;;;14.38;3.33;;;;;;;;;;5056941;28;20052;-71
2022/05/26 03:29:30;;;;;;;7.50;2.22;;;;;;;;;;5046402;28;20053;-71
2022/05/26 03:31:57;;;;;;;11.57;3.28;;;;;;;;;;5040235;28;20072;-71
2022/05/26 03:42:38;;;;;;;19.23;3.10;;;;;;;;;;5039797;28;20119;-71
2022/05/26 03:45:06;;;;;;;11.32;3.45;;;;;;;;;;5045891;28;20191;-70
2022/05/26 03:47:33;;;;;;;18.17;3.00;;;;;;;;;;5056775;28;20053;-71
2022/05/26 03:49:59;;;;;;;9.35;2.65;;;;;;;;;;5046149;28;20060;-71
2022/05/26 03:52:26;;;;;;;15.15;3.05;;;;;;;;;;5040250;28;20059;-71
2022/05/26 03:54:53;;;;;;;11.88;2.80;;;;;;;;;;5049536;28;20045;-70
2022/05/26 03:57:24;;;;;;;10.70;3.03;;;;;;;;;;5050697;28;20135;-70
2022/05/26 03:59:50;;;;;;;18.63;4.10;;;;;;;;;;5048639;28;20088;-70
2022/05/26 04:02:17;;;;;;;16.25;3.25;;;;;;;;;;5031910;28;20220;-70
2022/05/26 04:04:44;;;;;;;9.13;2.45;;;;;;;;;;5046317;28;20057;-70
2022/05/26 04:07:11;;;;;;;13.88;3.10;;;;;;;;;;5050847;28;20049;-70
2022/05/26 04:09:39;;;;;;;13.48;2.88;;;;;;;;;;5044337;28;20061;-71
2022/05/26 04:12:06;;;;;;;14.23;2.90;;;;;;;;;;5038447;28;20056;-71
2022/05/26 04:14:35;;;;;;;15.50;2.75;;;;;;;;;;5044450;28;20307;-70
2022/05/26 04:17:02;;;;;;;13.52;2.70;;;;;;;;;;5049540;28;20057;-71
2022/05/26 04:19:28;;;;;;;10.77;2.92;;;;;;;;;;5043867;28;20118;-70
2022/05/26 04:24:39;;;;;;;16.98;3.20;;;;;;;;;;5047375;28;20053;-70
2022/05/26 04:27:06;;;;;;;10.95;2.83;;;;;;;;;;5043728;28;20086;-70
2022/05/26 04:29:35;;;;;;;13.65;2.78;;;;;;;;;;5049997;28;20092;-70
2022/05/26 04:32:02;;;;;;;7.68;2.28;;;;;;;;;;5044359;28;20120;-70
2022/05/26 04:34:28;;;;;;;7.75;2.47;;;;;;;;;;5052089;28;20057;-71
2022/05/26 04:36:55;;;;;;;11.90;2.95;;;;;;;;;;5046087;28;20147;-71
2022/05/26 04:39:22;;;;;;;15.98;2.97;;;;;;;;;;5051740;28;20056;-71
2022/05/26 04:41:49;;;;;;;14.93;3.08;;;;;;;;;;5044467;28;20119;-70
2022/05/26 04:44:18;;;;;;;10.38;2.60;;;;;;;;;;5047235;28;20053;-70
2022/05/26 04:46:48;;;;;;;17.80;3.38;;;;;;;;;;5049192;28;20126;-70
2022/05/26 04:49:14;;;;;;;8.43;2.20;;;;;;;;;;5042967;28;20126;-70
2022/05/26 04:51:41;;;;;;;8.07;2.20;;;;;;;;;;5048856;28;20049;-70
2022/05/26 04:54:08;;;;;;;18.25;3.20;;;;;;;;;;5044950;28;20116;-71
2022/05/26 04:56:35;;;;;;;14.68;2.60;;;;;;;;;;5050722;28;20073;-70
2022/05/26 04:59:02;;;;;;;9.18;2.53;;;;;;;;;;5042577;28;20166;-70
2022/05/26 05:01:28;;;;;;;17.80;3.28;;;;;;;;;;5032869;28;20123;-70
2022/05/26 05:03:56;;;;;;;11.63;2.63;;;;;;;;;;5026838;28;20132;-70
2022/05/26 05:06:23;;;;;;;15.05;3.25;;;;;;;;;;5044529;28;20146;-70
2022/05/26 05:08:50;;;;;;;8.85;2.47;;;;;;;;;;5048518;28;20140;-70
2022/05/26 05:11:16;;;;;;;14.23;3.00;;;;;;;;;;5041540;28;20110;-71
2022/05/26 05:13:44;;;;;;;21.35;3.17;;;;;;;;;;5048373;28;20063;-70
2022/05/26 05:16:13;;;;;;;11.73;2.97;;;;;;;;;;5042518;28;20052;-70
2022/05/26 05:18:39;;;;;;;16.60;3.50;;;;;;;;;;5048187;28;20057;-70
2022/05/26 05:21:09;;;;;;;19.25;2.80;;;;;;;;;;5040251;28;20041;-71
2022/05/26 05:23:39;;;;;;;10.48;2.42;;;;;;;;;;5028385;28;20058;-71
2022/05/26 05:26:10;;;;;;;13.98;2.70;;;;;;;;;;5023986;28;20068;-70
2022/05/26 05:28:38;;;;;;;16.02;2.60;;;;;;;;;;5047106;28;20060;-69
2022/05/26 05:31:05;;;;;;;16.23;3.03;;;;;;;;;;5061726;28;20045;-68
2022/05/26 05:33:34;;;;;;;11.82;2.53;;;;;;;;;;5027028;28;20053;-68
2022/05/26 05:36:03;;;;;;;13.93;2.65;;;;;;;;;;5029168;28;20056;-69
2022/05/26 05:38:32;;;;;;;14.60;2.85;;;;;;;;;;5040882;28;20040;-68
2022/05/26 05:40:58;;;;;;;15.07;2.47;;;;;;;;;;5048108;28;20147;-69
2022/05/26 05:43:25;;;;;;;14.57;2.63;;;;;;;;;;5041445;28;20056;-68
2022/05/26 05:45:53;;;;;;;15.48;2.92;;;;;;;;;;5047944;28;20068;-68
2022/05/26 05:48:21;;;;;;;11.70;2.80;;;;;;;;;;5029665;28;20061;-69
2022/05/26 05:50:47;;;;;;;15.20;3.10;;;;;;;;;;5018866;28;20084;-68
2022/05/26 05:53:15;;;;;;;12.20;2.22;;;;;;;;;;5033435;28;20072;-69
2022/05/26 05:55:43;;;;;;;14.27;2.70;;;;;;;;;;5047948;28;20160;-68
2022/05/26 05:58:11;;;;;;;11.77;2.15;;;;;;;;;;5034242;28;20080;-69
2022/05/26 06:00:38;;;;;;;13.85;2.75;;;;;;;;;;5014590;28;20111;-69
2022/05/26 06:03:05;;;;;;;20.00;2.95;;;;;;;;;;5039676;28;20049;-69
2022/05/26 06:05:32;;;;;;;10.95;2.70;;;;;;;;;;5042129;28;20113;-69
2022/05/26 06:07:59;;;;;;;11.07;2.58;;;;;;;;;;5053641;28;20063;-69
2022/05/26 06:10:26;;;;;;;10.02;2.65;;;;;;;;;;5050393;28;20052;-69
2022/05/26 06:12:54;;;;;;;12.07;2.40;;;;;;;;;;5052869;28;20055;-69
2022/05/26 06:15:21;;;;;;;14.63;2.88;;;;;;;;;;5046080;28;20052;-70
2022/05/26 06:17:48;;;;;;;13.82;2.92;;;;;;;;;;5050811;28;20054;-69
2022/05/26 06:20:15;;;;;;;8.80;2.20;;;;;;;;;;5044830;28;20052;-68
2022/05/26 06:22:42;;;;;;;9.68;1.88;;;;;;;;;;5046318;28;20053;-69
2022/05/26 06:25:10;;;;;;;11.77;2.07;;;;;;;;;;5030788;28;20076;-69
2022/05/26 06:30:23;;;;;;;17.00;5.05;;;;;;;;;;5044683;28;20056;-68
2022/05/26 06:38:18;;;;;;;9.77;2.50;;;;;;;;;;5042953;28;20045;-69
2022/05/26 06:40:45;;;;;;;14.45;2.78;;;;;;;;;;5061892;28;20051;-68
2022/05/26 06:43:14;;;;;;;14.45;2.13;;;;;;;;;;5036733;28;20087;-69
2022/05/26 06:45:43;;;;;;;11.77;2.30;;;;;;;;;;5047906;28;20060;-69
2022/05/26 06:48:09;;;;;;;;;;;;;;;;;;5036419;28;20066;-69
2022/05/26 06:50:36;;;;;;;15.82;2.40;;;;;;;;;;5045601;28;19931;-69
2022/05/26 06:53:02;;;;;;;12.65;2.30;;;;;;;;;;5036010;28;20198;-69
2022/05/26 06:55:29;;;;;;;12.10;2.25;;;;;;;;;;5046002;28;20059;-69
2022/05/26 06:57:56;;;;;;;9.40;1.92;;;;;;;;;;5045779;28;20051;-68
2022/05/26 07:00:23;;;;;;;11.15;2.08;;;;;;;;;;5036283;28;20048;-69
2022/05/26 07:02:52;;;;;;;11.13;2.17;;;;;;;;;;5045518;28;20175;-68
2022/05/26 07:05:19;;;;;;;11.80;1.85;;;;;;;;;;5005589;28;20064;-68
2022/05/26 07:07:45;;;;;;;9.48;1.65;;;;;;;;;;5028067;28;20041;-68
2022/05/26 07:10:14;;;;;;;14.25;2.47;;;;;;;;;;5019453;28;20056;-69
2022/05/26 07:12:41;;;;;;;13.48;2.10;;;;;;;;;;5027711;28;20120;-68
2022/05/26 07:15:08;;;;;;;13.85;2.15;;;;;;;;;;5017774;28;20049;-68
2022/05/26 07:17:37;;;;;;;13.38;2.33;;;;;;;;;;5026846;28;20056;-68
2022/05/26 07:20:05;;;;;;;7.38;1.70;;;;;;;;;;5024976;28;21822;-68
2022/05/26 07:22:31;;;;;;;;;;;;;;;;;;5020970;28;20052;-68
2022/05/26 07:24:58;;;;;;;7.18;1.73;;;;;;;;;;5028098;28;19924;-69
2022/05/26 07:27:25;;;;;;;6.38;1.70;;;;;;;;;;5018546;28;20128;-69
2022/05/26 07:29:54;;;;;;;6.95;1.90;;;;;;;;;;5030812;28;20119;-69
2022/05/26 07:32:21;;;;;;;7.93;1.73;;;;;;;;;;5019830;28;20057;-70
2022/05/26 07:34:47;;;;;;;7.88;2.58;;;;;;;;;;5031631;28;20057;-69
2022/05/26 07:42:44;;;;;;;11.23;2.20;;;;;;;;;;5025109;28;20091;-69
2022/05/26 07:45:18;;;;;;;10.95;1.98;;;;;;;;;;5061340;28;20104;-69
2022/05/26 07:47:45;;;;;;;5.00;1.52;;;;;;;;;;5034310;28;20132;-69
2022/05/26 07:50:19;;;;;;;11.98;1.35;;;;;;;;;;5013797;28;20048;-70
2022/05/26 07:52:47;;;;;;;5.15;1.65;;;;;;;;;;5031409;28;20049;-68
2022/05/26 07:55:14;;;;;;;5.75;1.60;;;;;;;;;;5021609;28;20053;-69
2022/05/26 07:57:41;;;;;;;7.80;1.92;;;;;;;;;;5032345;28;20049;-68
2022/05/26 08:00:08;;;;;;;11.27;2.25;;;;;;;;;;5023464;28;20147;-69
2022/05/26 08:02:36;;;;;;;7.80;1.75;;;;;;;;;;5026047;28;20099;-68
2022/05/26 08:05:02;;;;;;;7.03;1.92;;;;;;;;;;5032012;28;20075;-68
2022/05/26 08:07:29;;;;;;;12.40;1.80;;;;;;;;;;5049300;28;20063;-68
2022/05/26 08:09:57;;;;;;;10.35;1.67;;;;;;;;;;5052210;28;20052;-69
2022/05/26 08:12:24;;;;;;;;;;;;;;;;;;5046774;28;20064;-69
2022/05/26 08:14:51;;;;;;;7.70;1.80;;;;;;;;;;5053122;28;19928;-69
2022/05/26 08:17:20;;;;;;;4.63;1.40;;;;;;;;;;5045805;28;20052;-69
2022/05/26 08:19:46;;;;;;;5.35;1.40;;;;;;;;;;5052500;28;20083;-69
2022/05/26 08:22:14;;;;;;;3.95;1.10;;;;;;;;;;5043831;28;20053;-70
2022/05/26 08:24:40;;;;;;;6.60;1.70;;;;;;;;;;5032693;28;20049;-69
2022/05/26 08:27:09;;;;;;;6.22;1.30;;;;;;;;;;5027861;28;20052;-69
2022/05/26 08:29:38;;;;;;;7.93;1.40;;;;;;;;;;5032344;28;20056;-69
2022/05/26 08:32:05;;;;;;;8.05;1.85;;;;;;;;;;5032246;28;20057;-69
2022/05/26 08:34:32;;;;;;;8.57;1.67;;;;;;;;;;5034809;28;20102;-69
2022/05/26 08:36:59;;;;;;;3.72;1.35;;;;;;;;;;5042714;28;20055;-69
2022/05/26 08:39:25;;;;;;;3.88;1.52;;;;;;;;;;5044308;28;20118;-69
2022/05/26 08:41:52;;;;;;;7.78;2.05;;;;;;;;;;5052059;28;20056;-70
2022/05/26 08:44:25;;;;;;;5.53;1.90;;;;;;;;;;5031286;28;20056;-70
2022/05/26 08:46:54;;;;;;;7.43;2.10;;;;;;;;;;5033305;28;20064;-69
2022/05/26 08:49:24;;;;;;;4.97;1.52;;;;;;;;;;5028014;28;20055;-69
2022/05/26 08:51:52;;;;;;;10.40;1.70;;;;;;;;;;5031968;28;20144;-70
2022/05/26 08:54:22;;;;;;;3.88;1.30;;;;;;;;;;5045687;28;20052;-70
2022/05/26 08:56:50;;;;;;;10.38;1.60;;;;;;;;;;5051400;28;20060;-70
2022/05/26 08:59:17;;;;;;;7.35;1.63;;;;;;;;;;5048266;28;20056;-69
2022/05/26 09:01:46;;;;;;;3.80;1.05;;;;;;;;;;5047376;28;20110;-69
2022/05/26 09:04:12;;;;;;;6.00;1.20;;;;;;;;;;5044976;28;20060;-68
2022/05/26 09:14:54;;;;;;;8.63;1.75;;;;;;;;;;5037724;28;20068;-69
2022/05/26 09:17:23;;;;;;;9.18;1.35;;;;;;;;;;5032226;28;20061;-70
2022/05/26 09:19:50;;;;;;;4.00;1.50;;;;;;;;;;5026533;28;20106;-70
2022/05/26 09:22:28;;;;;;;4.57;1.25;;;;;;;;;;5031639;28;20071;-69
2022/05/26 09:24:55;;;;;;;8.27;1.25;;;;;;;;;;5031759;28;20052;-71
2022/05/26 09:27:28;;;;;;;11.73;1.70;;;;;;;;;;5051892;28;20048;-69
2022/05/26 09:29:54;;;;;;;9.00;1.10;;;;;;;;;;5044671;28;20044;-69
2022/05/26 09:32:30;;;;;;;4.35;1.25;;;;;;;;;;5071536;28;20048;-68
2022/05/26 09:35:05;;;;;;;6.35;1.10;;;;;;;;;;5063045;28;20060;-69
2022/05/26 09:37:41;;;;;;;4.75;1.20;;;;;;;;;;5050074;28;20060;-69
2022/05/26 09:40:12;;;;;;;5.75;1.40;;;;;;;;;;5043673;28;20185;-70
2022/05/26 09:42:41;;;;;;;5.72;1.20;;;;;;;;;;5031980;28;20076;-70
2022/05/26 09:45:10;;;;;;;5.60;1.55;;;;;;;;;;5027452;28;20057;-69
2022/05/26 09:47:40;;;;;;;11.25;4.13;;;;;;;;;;5051557;28;20119;-71
2022/05/26 09:50:08;;;;;;;6.47;1.40;;;;;;;;;;5051606;28;20052;-70
2022/05/26 09:52:39;;;;;;;7.55;1.30;;;;;;;;;;5062041;28;20166;-69
2022/05/26 09:55:15;;;;;;;8.25;1.40;;;;;;;;;;5051515;28;20056;-69
2022/05/26 09:57:42;;;;;;;2.10;0.82;;;;;;;;;;5045306;28;20068;-72
2022/05/26 10:00:21;;;;;;;6.10;0.90;;;;;;;;;;5051127;28;20122;-72
2022/05/26 10:02:50;;;;;;;5.72;1.00;;;;;;;;;;5059576;28;20048;-70
2022/05/26 10:05:22;;;;;;;7.35;0.90;;;;;;;;;;5064495;28;20076;-71
2022/05/26 10:07:54;;;;;;;2.78;1.00;;;;;;;;;;5042242;28;20115;-70
2022/05/26 10:10:25;;;;;;;6.30;1.27;;;;;;;;;;5048243;28;20103;-69
2022/05/26 10:12:56;;;;;;;3.83;1.02;;;;;;;;;;5027281;28;20141;-69
2022/05/26 10:15:29;;;;;;;6.85;1.20;;;;;;;;;;5028294;28;20060;-72
2022/05/26 10:18:05;;;;;;;11.98;1.10;;;;;;;;;;5023358;28;20111;-72
2022/05/26 10:20:37;;;;;;;8.93;1.65;;;;;;;;;;5027999;28;20064;-73
2022/05/26 10:23:19;;;;;;;5.07;1.10;;;;;;;;;;5016803;28;20092;-73
2022/05/26 10:25:52;;;;;;;9.73;1.20;;;;;;;;;;5027407;28;20056;-73
2022/05/26 10:28:25;;;;;;;4.13;0.95;;;;;;;;;;5033711;28;20056;-75
2022/05/26 10:30:54;;;;;;;3.13;1.08;;;;;;;;;;5047273;28;20143;-71
2022/05/26 10:33:38;;;;;;;6.70;1.75;;;;;;;;;;5041376;28;20060;-70
2022/05/26 10:36:14;;;;;;;8.73;1.30;;;;;;;;;;5047191;28;20045;-73
2022/05/26 10:38:49;;;;;;;7.13;1.40;;;;;;;;;;5028678;28;20045;-74
2022/05/26 10:41:19;;;;;;;4.57;1.20;;;;;;;;;;5026882;28;20132;-75
2022/05/26 10:43:48;;;;;;;4.95;1.02;;;;;;;;;;5022142;28;20053;-69
2022/05/26 10:46:16;;;;;;;7.25;2.00;;;;;;;;;;5027069;28;20056;-73
2022/05/26 10:48:49;;;;;;;7.28;1.50;;;;;;;;;;5031131;28;20052;-71
2022/05/26 10:51:18;;;;;;;4.13;1.25;;;;;;;;;;5027585;28;20056;-71
2022/05/26 10:53:47;;;;;;;9.13;1.20;;;;;;;;;;5023799;28;20061;-71
2022/05/26 10:56:19;;;;;;;6.72;1.27;;;;;;;;;;5027320;28;20213;-73
2022/05/26 10:58:48;;;;;;;5.05;1.10;;;;;;;;;;5021525;28;20048;-72
2022/05/26 11:01:16;;;;;;;6.13;1.10;;;;;;;;;;5027395;28;20053;-69
2022/05/26 11:03:45;;;;;;;7.20;1.35;;;;;;;;;;5009496;28;20048;-72
2022/05/26 11:06:21;;;;;;;3.60;1.00;;;;;;;;;;5029815;28;20056;-72
2022/05/26 11:08:49;;;;;;;2.72;0.98;;;;;;;;;;5016982;28;20056;-69
2022/05/26 11:11:19;;;;;;;4.13;1.20;;;;;;;;;;5018150;28;20049;-71
2022/05/26 11:13:49;;;;;;;9.05;1.25;;;;;;;;;;5021801;28;20050;-74
2022/05/26 11:19:17;;;;;;;5.55;1.05;;;;;;;;;;5004230;28;20136;-71
2022/05/26 11:21:45;;;;;;;3.30;1.05;;;;;;;;;;5039934;28;20052;-71
2022/05/26 11:24:12;;;;;;;3.58;0.85;;;;;;;;;;5007889;28;20064;-69
2022/05/26 11:26:41;;;;;;;8.38;1.30;;;;;;;;;;5046687;28;20057;-71
2022/05/26 11:29:11;;;;;;;3.63;0.82;;;;;;;;;;5024336;28;20109;-71
2022/05/26 11:37:27;;;;;;;6.95;1.02;;;;;;;;;;5010575;28;20130;-72
2022/05/26 11:39:55;;;;;;;3.65;1.05;;;;;;;;;;5007707;28;20056;-70
2022/05/26 11:42:27;;;;;;;3.03;0.73;;;;;;;;;;5029331;28;20123;-70
2022/05/26 11:44:56;;;;;;;3.47;1.33;;;;;;;;;;5018307;28;20131;-70
2022/05/26 11:47:30;;;;;;;5.15;0.90;;;;;;;;;;5027268;28;20144;-70
2022/05/26 11:50:20;;;;;;;4.88;0.70;;;;;;;;;;5020840;28;20103;-69
2022/05/26 11:53:02;;;;;;;5.72;0.80;;;;;;;;;;5026000;28;20056;-70
2022/05/26 11:55:31;;;;;;;3.08;0.77;;;;;;;;;;5020284;28;20041;-70
2022/05/26 11:58:13;;;;;;;5.38;1.13;;;;;;;;;;5043775;28;20069;-70
2022/05/26 12:00:43;;;;;;;3.55;0.77;;;;;;;;;;5020486;28;20053;-70
2022/05/26 12:03:29;;;;;;;1.73;0.77;;;;;;;;;;5042663;28;20052;-70
2022/05/26 12:06:10;;;;;;;5.32;1.00;;;;;;;;;;5040247;28;20060;-71
2022/05/26 12:08:40;;;;;;;7.45;0.70;;;;;;;;;;5046255;28;20057;-70
2022/05/26 12:11:09;;;;;;;3.28;0.90;;;;;;;;;;5039667;28;20060;-69
2022/05/26 12:13:42;;;;;;;3.42;0.80;;;;;;;;;;5046342;28;20124;-69
2022/05/26 12:16:11;;;;;;;2.40;0.70;;;;;;;;;;5044748;28;20095;-70
2022/05/26 12:18:39;;;;;;;5.53;0.98;;;;;;;;;;5049246;28;20064;-69
2022/05/26 12:21:13;;;;;;;9.32;0.93;;;;;;;;;;5046297;28;20060;-69
2022/05/26 12:23:42;;;;;;;9.40;1.25;;;;;;;;;;5050323;28;20235;-69
2022/05/26 12:26:29;;;;;;;4.28;0.70;;;;;;;;;;5050766;28;20076;-69
2022/05/26 12:28:56;;;;;;;3.97;0.98;;;;;;;;;;5045098;28;20048;-69
2022/05/26 12:31:23;;;;;;;2.50;0.73;;;;;;;;;;5049774;28;20056;-70
2022/05/26 12:34:08;;;;;;;4.63;0.98;;;;;;;;;;5043668;28;20056;-69
2022/05/26 12:36:57;;;;;;;4.07;0.80;;;;;;;;;;5050450;28;20052;-69
2022/05/26 12:39:33;;;;;;;2.53;0.70;;;;;;;;;;5043420;28;20076;-68
2022/05/26 12:42:03;;;;;;;2.78;0.70;;;;;;;;;;5043395;28;20053;-69
2022/05/26 12:44:36;;;;;;;3.05;0.82;;;;;;;;;;5049864;28;20067;-70
2022/05/26 12:47:11;;;;;;;5.70;1.40;;;;;;;;;;5047976;28;20049;-69
2022/05/26 12:49:56;;;;;;;6.60;1.48;;;;;;;;;;5048626;28;20048;-68
2022/05/26 12:52:26;;;;;;;6.68;1.23;;;;;;;;;;5043860;28;20053;-69
2022/05/26 12:55:02;;;;;;;6.22;1.40;;;;;;;;;;5066249;28;20052;-68
2022/05/26 12:57:31;;;;;;;8.23;1.30;;;;;;;;;;5046937;28;20052;-68
2022/05/26 13:00:13;;;;;;;5.82;1.20;;;;;;;;;;5048038;28;20076;-68
2022/05/26 13:02:41;;;;;;;10.98;1.45;;;;;;;;;;5038531;28;20045;-68
2022/05/26 13:05:07;;;;;;;;;;;;;;;;;;5054020;28;20059;-68
2022/05/26 13:07:35;;;;;;;7.60;0.90;;;;;;;;;;5051707;28;19925;-67
2022/05/26 13:10:04;;;;;;;3.37;1.17;;;;;;;;;;5039166;28;20052;-68
2022/05/26 13:12:32;;;;;;;4.38;0.68;;;;;;;;;;5049722;28;20054;-68
2022/05/26 13:15:01;;;;;;;6.00;1.38;;;;;;;;;;5039334;28;20052;-68
2022/05/26 13:17:28;;;;;;;2.65;1.00;;;;;;;;;;5046653;28;20056;-68
2022/05/26 13:19:56;;;;;;;4.18;1.35;;;;;;;;;;5038592;28;20045;-67
2022/05/26 13:22:27;;;;;;;3.93;1.00;;;;;;;;;;5049371;28;20045;-67
2022/05/26 13:24:54;;;;;;;3.60;1.13;;;;;;;;;;5044049;28;20044;-68
2022/05/26 13:27:23;;;;;;;5.40;1.27;;;;;;;;;;5042651;28;20040;-69
2022/05/26 13:29:51;;;;;;;5.68;1.50;;;;;;;;;;5049354;28;20047;-68
2022/05/26 13:35:01;;;;;;;10.07;1.77;;;;;;;;;;5040449;28;20019;-68
2022/05/26 13:37:30;;;;;;;7.32;1.70;;;;;;;;;;5036829;28;20135;-67
2022/05/26 13:40:07;;;;;;;11.55;1.73;;;;;;;;;;5049239;28;20079;-67
2022/05/26 13:42:36;;;;;;;4.60;1.50;;;;;;;;;;5054622;28;20068;-67
2022/05/26 13:45:09;;;;;;;6.90;1.80;;;;;;;;;;5048588;28;20084;-67
2022/05/26 13:47:35;;;;;;;8.75;1.77;;;;;;;;;;5040528;28;20044;-67
2022/05/26 13:50:03;;;;;;;7.57;2.35;;;;;;;;;;5046220;28;20053;-66
2022/05/26 13:52:31;;;;;;;5.55;1.85;;;;;;;;;;5040321;28;20052;-67
2022/05/26 13:54:59;;;;;;;8.45;1.70;;;;;;;;;;5045252;28;20052;-67
2022/05/26 13:57:27;;;;;;;6.22;1.50;;;;;;;;;;5051433;28;20051;-68
2022/05/26 13:59:57;;;;;;;7.22;1.70;;;;;;;;;;5045672;28;20056;-66
2022/05/26 14:02:24;;;;;;;7.40;1.70;;;;;;;;;;5039299;28;20126;-67
2022/05/26 14:04:58;;;;;;;9.43;2.13;;;;;;;;;;5041815;28;20187;-67
2022/05/26 14:07:29;;;;;;;5.95;1.55;;;;;;;;;;5047006;28;20056;-68
2022/05/26 14:10:04;;;;;;;7.65;1.60;;;;;;;;;;5044254;28;20045;-66
2022/05/26 14:12:31;;;;;;;12.00;1.75;;;;;;;;;;5048554;28;20104;-67
2022/05/26 14:15:06;;;;;;;5.13;1.48;;;;;;;;;;5048815;28;20055;-66
2022/05/26 14:17:33;;;;;;;8.07;1.80;;;;;;;;;;5039971;28;20049;-68
2022/05/26 14:20:03;;;;;;;6.13;1.73;;;;;;;;;;5047442;28;20068;-65
2022/05/26 14:22:41;;;;;;;5.32;1.27;;;;;;;;;;5040581;28;20132;-66
2022/05/26 14:25:16;;;;;;;6.70;1.50;;;;;;;;;;5045172;28;20052;-66
2022/05/26 14:27:53;;;;;;;7.03;1.52;;;;;;;;;;5014011;28;20050;-66
2022/05/26 14:30:38;;;;;;;5.05;1.50;;;;;;;;;;5027322;28;20054;-68
2022/05/26 14:33:18;;;;;;;3.15;1.58;;;;;;;;;;5022143;28;20050;-67
2022/05/26 14:35:47;;;;;;;9.50;1.55;;;;;;;;;;5027714;28;20060;-66
2022/05/26 14:38:17;;;;;;;10.43;1.73;;;;;;;;;;5023829;28;20123;-67
2022/05/26 14:40:44;;;;;;;7.10;1.55;;;;;;;;;;5026949;28;20055;-68
2022/05/26 14:43:11;;;;;;;4.50;1.40;;;;;;;;;;5034982;28;20064;-66
2022/05/26 14:45:39;;;;;;;6.25;1.63;;;;;;;;;;5038234;28;20057;-66
2022/05/26 14:48:07;;;;;;;6.95;1.85;;;;;;;;;;5040823;28;20056;-67
2022/05/26 14:50:33;;;;;;;5.72;1.50;;;;;;;;;;5047054;28;20117;-66
2022/05/26 14:53:01;;;;;;;9.15;1.92;;;;;;;;;;5041252;28;20106;-68
2022/05/26 14:55:28;;;;;;;6.38;1.30;;;;;;;;;;5047263;28;20061;-68
2022/05/26 14:57:56;;;;;;;8.15;2.72;;;;;;;;;;5040794;28;20116;-66
2022/05/26 15:00:24;;;;;;;4.95;1.15;;;;;;;;;;5046898;28;20048;-66
2022/05/26 15:02:53;;;;;;;7.80;1.60;;;;;;;;;;5037425;28;20053;-66
2022/05/26 15:05:21;;;;;;;10.43;2.22;;;;;;;;;;5029364;28;20044;-66
2022/05/26 15:07:48;;;;;;;10.57;1.77;;;;;;;;;;5043180;28;20135;-67
2022/05/26 15:10:16;;;;;;;5.95;1.40;;;;;;;;;;5038601;28;20064;-67
2022/05/26 15:12:43;;;;;;;6.10;1.40;;;;;;;;;;5044257;28;20060;-66
2022/05/26 15:15:15;;;;;;;6.15;1.75;;;;;;;;;;5034642;28;20129;-66
2022/05/26 15:17:42;;;;;;;4.47;1.40;;;;;;;;;;5038489;28;20064;-66
2022/05/26 15:20:12;;;;;;;4.63;1.50;;;;;;;;;;5030900;28;20049;-67
2022/05/26 15:22:39;;;;;;;15.15;1.98;;;;;;;;;;5042685;28;20079;-66
2022/05/26 15:25:08;;;;;;;7.20;1.77;;;;;;;;;;5032131;28;20172;-65
2022/05/26 15:27:35;;;;;;;5.72;1.52;;;;;;;;;;5025280;28;20098;-65
2022/05/26 15:30:02;;;;;;;5.10;1.33;;;;;;;;;;5041677;28;20136;-67
2022/05/26 15:32:30;;;;;;;7.70;1.80;;;;;;;;;;5033240;28;20053;-66
2022/05/26 15:34:57;;;;;;;10.52;1.73;;;;;;;;;;5044883;28;20053;-65
2022/05/26 15:37:25;;;;;;;6.00;1.73;;;;;;;;;;5033706;28;20068;-65
2022/05/26 15:39:52;;;;;;;6.13;1.48;;;;;;;;;;5039892;28;20068;-65